sensor_id;sensor_type;location;lat;lon;timestamp;P1;durP1;ratioP1;P2;durP2;ratioP2
5058;SDS011;2548;52.050;11.036;2023-08-24T00:00:01;30.23;;;6.35;;
5058;SDS011;2548;52.050;11.036;2023-08-24T00:02:35;18.45;;;6.28;;
5058;SDS011;2548;52.050;11.036;2023-08-24T00:05:03;21.23;;;7.72;;
5058;SDS011;2548;52.050;11.036;2023-08-24T00:07:31;11.17;;;6.53;;
5058;SDS011;2548;52.050;11.036;2023-08-24T00:09:59;15.68;;;5.60;;
5058;SDS011;2548;52.050;11.036;2023-08-24T00:12:27;10.30;;;5.05;;
5058;SDS011;2548;52.050;11.036;2023-08-24T00:14:55;7.22;;;5.32;;
5058;SDS011;2548;52.050;11.036;2023-08-24T00:17:23;14.85;;;4.78;;
5058;SDS011;2548;52.050;11.036;2023-08-24T00:19:53;10.40;;;5.00;;
5058;SDS011;2548;52.050;11.036;2023-08-24T00:22:21;10.13;;;5.18;;
5058;SDS011;2548;52.050;11.036;2023-08-24T00:24:48;10.07;;;5.75;;
5058;SDS011;2548;52.050;11.036;2023-08-24T00:27:30;5.70;;;5.13;;
5058;SDS011;2548;52.050;11.036;2023-08-24T00:30:01;14.13;;;5.57;;
5058;SDS011;2548;52.050;11.036;2023-08-24T00:32:30;10.43;;;5.50;;
5058;SDS011;2548;52.050;11.036;2023-08-24T00:35:01;10.57;;;5.70;;
5058;SDS011;2548;52.050;11.036;2023-08-24T00:37:29;9.68;;;6.38;;
5058;SDS011;2548;52.050;11.036;2023-08-24T00:40:02;6.57;;;5.93;;
5058;SDS011;2548;52.050;11.036;2023-08-24T00:42:42;10.23;;;5.75;;
5058;SDS011;2548;52.050;11.036;2023-08-24T00:45:14;6.43;;;5.63;;
5058;SDS011;2548;52.050;11.036;2023-08-24T00:47:43;5.80;;;5.35;;
5058;SDS011;2548;52.050;11.036;2023-08-24T00:50:13;6.68;;;5.50;;
5058;SDS011;2548;52.050;11.036;2023-08-24T00:52:47;5.38;;;4.88;;
5058;SDS011;2548;52.050;11.036;2023-08-24T00:55:15;11.27;;;6.13;;
5058;SDS011;2548;52.050;11.036;2023-08-24T00:57:45;5.65;;;5.15;;
5058;SDS011;2548;52.050;11.036;2023-08-24T01:00:12;13.13;;;6.03;;
5058;SDS011;2548;52.050;11.036;2023-08-24T01:02:41;30.17;;;6.18;;
5058;SDS011;2548;52.050;11.036;2023-08-24T01:05:08;7.40;;;5.20;;
5058;SDS011;2548;52.050;11.036;2023-08-24T01:07:37;9.00;;;6.10;;
5058;SDS011;2548;52.050;11.036;2023-08-24T01:10:07;18.77;;;7.00;;
5058;SDS011;2548;52.050;11.036;2023-08-24T01:12:42;7.50;;;5.82;;
5058;SDS011;2548;52.050;11.036;2023-08-24T01:15:24;6.15;;;5.53;;
5058;SDS011;2548;52.050;11.036;2023-08-24T01:17:56;5.18;;;4.63;;
5058;SDS011;2548;52.050;11.036;2023-08-24T01:20:37;28.23;;;6.10;;
5058;SDS011;2548;52.050;11.036;2023-08-24T01:23:18;5.95;;;5.45;;
5058;SDS011;2548;52.050;11.036;2023-08-24T01:26:02;16.55;;;5.63;;
5058;SDS011;2548;52.050;11.036;2023-08-24T01:28:32;5.15;;;4.75;;
5058;SDS011;2548;52.050;11.036;2023-08-24T01:31:03;6.45;;;5.90;;
5058;SDS011;2548;52.050;11.036;2023-08-24T01:33:31;10.68;;;5.68;;
5058;SDS011;2548;52.050;11.036;2023-08-24T01:35:58;11.90;;;5.32;;
5058;SDS011;2548;52.050;11.036;2023-08-24T01:38:27;10.18;;;4.65;;
5058;SDS011;2548;52.050;11.036;2023-08-24T01:40:58;5.40;;;5.00;;
5058;SDS011;2548;52.050;11.036;2023-08-24T01:43:51;10.77;;;5.60;;
5058;SDS011;2548;52.050;11.036;2023-08-24T01:46:26;10.32;;;5.18;;
5058;SDS011;2548;52.050;11.036;2023-08-24T01:48:57;12.77;;;5.47;;
5058;SDS011;2548;52.050;11.036;2023-08-24T01:51:32;13.07;;;5.35;;
5058;SDS011;2548;52.050;11.036;2023-08-24T01:54:04;21.33;;;6.00;;
5058;SDS011;2548;52.050;11.036;2023-08-24T01:56:32;9.00;;;5.00;;
5058;SDS011;2548;52.050;11.036;2023-08-24T01:59:07;5.90;;;5.10;;
5058;SDS011;2548;52.050;11.036;2023-08-24T02:01:36;13.50;;;6.10;;
5058;SDS011;2548;52.050;11.036;2023-08-24T02:04:07;6.03;;;5.47;;
5058;SDS011;2548;52.050;11.036;2023-08-24T02:06:34;8.35;;;5.93;;
5058;SDS011;2548;52.050;11.036;2023-08-24T02:09:02;6.10;;;5.60;;
5058;SDS011;2548;52.050;11.036;2023-08-24T02:11:29;7.73;;;6.93;;
5058;SDS011;2548;52.050;11.036;2023-08-24T02:13:57;6.25;;;5.82;;
5058;SDS011;2548;52.050;11.036;2023-08-24T02:16:26;10.63;;;6.22;;
5058;SDS011;2548;52.050;11.036;2023-08-24T02:18:53;6.10;;;5.65;;
5058;SDS011;2548;52.050;11.036;2023-08-24T02:21:21;6.97;;;6.38;;
5058;SDS011;2548;52.050;11.036;2023-08-24T02:23:50;9.02;;;5.85;;
5058;SDS011;2548;52.050;11.036;2023-08-24T02:26:18;7.10;;;6.40;;
5058;SDS011;2548;52.050;11.036;2023-08-24T02:28:46;8.02;;;7.15;;
5058;SDS011;2548;52.050;11.036;2023-08-24T02:31:13;12.25;;;7.25;;
5058;SDS011;2548;52.050;11.036;2023-08-24T02:33:46;8.65;;;7.32;;
5058;SDS011;2548;52.050;11.036;2023-08-24T02:36:14;6.65;;;6.10;;
5058;SDS011;2548;52.050;11.036;2023-08-24T02:38:42;11.38;;;7.22;;
5058;SDS011;2548;52.050;11.036;2023-08-24T02:41:12;12.52;;;6.97;;
5058;SDS011;2548;52.050;11.036;2023-08-24T02:43:40;6.85;;;6.22;;
5058;SDS011;2548;52.050;11.036;2023-08-24T02:46:13;9.57;;;6.18;;
5058;SDS011;2548;52.050;11.036;2023-08-24T02:48:41;9.43;;;5.50;;
5058;SDS011;2548;52.050;11.036;2023-08-24T02:51:10;6.15;;;5.55;;
5058;SDS011;2548;52.050;11.036;2023-08-24T02:53:37;6.00;;;5.05;;
5058;SDS011;2548;52.050;11.036;2023-08-24T02:56:11;9.13;;;6.40;;
5058;SDS011;2548;52.050;11.036;2023-08-24T02:58:38;8.02;;;5.30;;
5058;SDS011;2548;52.050;11.036;2023-08-24T03:01:13;7.13;;;5.28;;
5058;SDS011;2548;52.050;11.036;2023-08-24T03:03:40;16.17;;;5.18;;
5058;SDS011;2548;52.050;11.036;2023-08-24T03:06:11;5.15;;;4.85;;
5058;SDS011;2548;52.050;11.036;2023-08-24T03:08:39;4.43;;;4.13;;
5058;SDS011;2548;52.050;11.036;2023-08-24T03:11:11;4.22;;;4.03;;
5058;SDS011;2548;52.050;11.036;2023-08-24T03:13:41;4.95;;;4.50;;
5058;SDS011;2548;52.050;11.036;2023-08-24T03:16:12;5.18;;;4.80;;
5058;SDS011;2548;52.050;11.036;2023-08-24T03:18:39;5.97;;;5.38;;
5058;SDS011;2548;52.050;11.036;2023-08-24T03:21:10;7.00;;;5.63;;
5058;SDS011;2548;52.050;11.036;2023-08-24T03:23:37;7.53;;;5.65;;
5058;SDS011;2548;52.050;11.036;2023-08-24T03:26:08;12.07;;;7.03;;
5058;SDS011;2548;52.050;11.036;2023-08-24T03:28:38;8.00;;;6.68;;
5058;SDS011;2548;52.050;11.036;2023-08-24T03:31:08;10.07;;;5.80;;
5058;SDS011;2548;52.050;11.036;2023-08-24T03:33:36;5.80;;;5.18;;
5058;SDS011;2548;52.050;11.036;2023-08-24T03:36:03;6.65;;;5.95;;
5058;SDS011;2548;52.050;11.036;2023-08-24T03:38:32;6.30;;;5.72;;
5058;SDS011;2548;52.050;11.036;2023-08-24T03:41:00;6.47;;;5.97;;
5058;SDS011;2548;52.050;11.036;2023-08-24T03:43:37;5.95;;;5.38;;
5058;SDS011;2548;52.050;11.036;2023-08-24T03:46:05;12.30;;;6.43;;
5058;SDS011;2548;52.050;11.036;2023-08-24T03:48:35;9.20;;;5.60;;
5058;SDS011;2548;52.050;11.036;2023-08-24T03:51:03;7.38;;;5.95;;
5058;SDS011;2548;52.050;11.036;2023-08-24T03:53:36;13.60;;;5.70;;
5058;SDS011;2548;52.050;11.036;2023-08-24T03:56:06;17.02;;;5.18;;
5058;SDS011;2548;52.050;11.036;2023-08-24T03:58:33;7.78;;;6.13;;
5058;SDS011;2548;52.050;11.036;2023-08-24T04:01:01;14.50;;;5.32;;
5058;SDS011;2548;52.050;11.036;2023-08-24T04:03:28;10.35;;;6.07;;
5058;SDS011;2548;52.050;11.036;2023-08-24T04:05:56;8.25;;;5.13;;
5058;SDS011;2548;52.050;11.036;2023-08-24T04:08:23;5.88;;;5.20;;
5058;SDS011;2548;52.050;11.036;2023-08-24T04:10:59;11.93;;;5.55;;
5058;SDS011;2548;52.050;11.036;2023-08-24T04:13:25;6.68;;;5.57;;
5058;SDS011;2548;52.050;11.036;2023-08-24T04:15:56;8.50;;;5.80;;
5058;SDS011;2548;52.050;11.036;2023-08-24T04:18:24;10.50;;;5.40;;
5058;SDS011;2548;52.050;11.036;2023-08-24T04:20:57;15.98;;;6.15;;
5058;SDS011;2548;52.050;11.036;2023-08-24T04:23:25;8.18;;;6.30;;
5058;SDS011;2548;52.050;11.036;2023-08-24T04:25:55;6.20;;;5.60;;
5058;SDS011;2548;52.050;11.036;2023-08-24T04:28:25;7.65;;;6.38;;
5058;SDS011;2548;52.050;11.036;2023-08-24T04:30:54;5.35;;;4.85;;
5058;SDS011;2548;52.050;11.036;2023-08-24T04:33:22;8.80;;;4.78;;
5058;SDS011;2548;52.050;11.036;2023-08-24T04:35:53;5.50;;;5.00;;
5058;SDS011;2548;52.050;11.036;2023-08-24T04:38:21;9.43;;;5.45;;
5058;SDS011;2548;52.050;11.036;2023-08-24T04:40:49;7.60;;;5.50;;
5058;SDS011;2548;52.050;11.036;2023-08-24T04:43:18;12.50;;;5.30;;
5058;SDS011;2548;52.050;11.036;2023-08-24T04:45:48;9.55;;;5.50;;
5058;SDS011;2548;52.050;11.036;2023-08-24T04:48:18;9.55;;;5.18;;
5058;SDS011;2548;52.050;11.036;2023-08-24T04:50:51;10.73;;;4.97;;
5058;SDS011;2548;52.050;11.036;2023-08-24T04:53:20;6.28;;;5.72;;
5058;SDS011;2548;52.050;11.036;2023-08-24T04:55:52;10.68;;;5.20;;
5058;SDS011;2548;52.050;11.036;2023-08-24T04:58:20;7.18;;;4.30;;
5058;SDS011;2548;52.050;11.036;2023-08-24T05:00:53;6.90;;;5.47;;
5058;SDS011;2548;52.050;11.036;2023-08-24T05:03:23;6.55;;;5.93;;
5058;SDS011;2548;52.050;11.036;2023-08-24T05:05:54;10.02;;;6.57;;
5058;SDS011;2548;52.050;11.036;2023-08-24T05:08:25;7.32;;;6.63;;
5058;SDS011;2548;52.050;11.036;2023-08-24T05:10:52;7.50;;;6.70;;
5058;SDS011;2548;52.050;11.036;2023-08-24T05:13:20;10.48;;;6.20;;
5058;SDS011;2548;52.050;11.036;2023-08-24T05:15:56;6.38;;;5.97;;
5058;SDS011;2548;52.050;11.036;2023-08-24T05:18:24;6.75;;;6.15;;
5058;SDS011;2548;52.050;11.036;2023-08-24T05:20:55;7.47;;;6.78;;
5058;SDS011;2548;52.050;11.036;2023-08-24T05:23:23;11.00;;;7.70;;
5058;SDS011;2548;52.050;11.036;2023-08-24T05:25:51;8.20;;;7.40;;
5058;SDS011;2548;52.050;11.036;2023-08-24T05:28:19;8.60;;;7.80;;
5058;SDS011;2548;52.050;11.036;2023-08-24T05:30:46;9.15;;;8.20;;
5058;SDS011;2548;52.050;11.036;2023-08-24T05:33:15;8.30;;;7.70;;
5058;SDS011;2548;52.050;11.036;2023-08-24T05:35:50;7.78;;;6.55;;
5058;SDS011;2548;52.050;11.036;2023-08-24T05:38:18;11.00;;;7.70;;
5058;SDS011;2548;52.050;11.036;2023-08-24T05:40:46;7.97;;;7.22;;
5058;SDS011;2548;52.050;11.036;2023-08-24T05:43:15;10.20;;;7.07;;
5058;SDS011;2548;52.050;11.036;2023-08-24T05:45:43;10.90;;;7.63;;
5058;SDS011;2548;52.050;11.036;2023-08-24T05:48:12;11.75;;;7.47;;
5058;SDS011;2548;52.050;11.036;2023-08-24T05:50:50;8.23;;;7.40;;
5058;SDS011;2548;52.050;11.036;2023-08-24T05:53:18;15.65;;;7.78;;
5058;SDS011;2548;52.050;11.036;2023-08-24T05:55:48;9.40;;;7.32;;
5058;SDS011;2548;52.050;11.036;2023-08-24T05:58:16;16.73;;;7.65;;
5058;SDS011;2548;52.050;11.036;2023-08-24T06:00:43;17.85;;;9.00;;
5058;SDS011;2548;52.050;11.036;2023-08-24T06:03:14;14.20;;;7.38;;
5058;SDS011;2548;52.050;11.036;2023-08-24T06:05:47;13.00;;;8.68;;
5058;SDS011;2548;52.050;11.036;2023-08-24T06:08:24;12.80;;;8.43;;
5058;SDS011;2548;52.050;11.036;2023-08-24T06:10:52;15.30;;;8.48;;
5058;SDS011;2548;52.050;11.036;2023-08-24T06:13:22;15.40;;;8.50;;
5058;SDS011;2548;52.050;11.036;2023-08-24T06:15:50;8.88;;;7.72;;
5058;SDS011;2548;52.050;11.036;2023-08-24T06:18:20;9.57;;;7.40;;
5058;SDS011;2548;52.050;11.036;2023-08-24T06:20:50;9.15;;;8.25;;
5058;SDS011;2548;52.050;11.036;2023-08-24T06:23:22;15.85;;;8.80;;
5058;SDS011;2548;52.050;11.036;2023-08-24T06:25:53;11.75;;;7.53;;
5058;SDS011;2548;52.050;11.036;2023-08-24T06:28:21;9.55;;;6.35;;
5058;SDS011;2548;52.050;11.036;2023-08-24T06:30:54;12.13;;;8.10;;
5058;SDS011;2548;52.050;11.036;2023-08-24T06:33:26;7.20;;;6.70;;
5058;SDS011;2548;52.050;11.036;2023-08-24T06:35:55;16.97;;;6.10;;
5058;SDS011;2548;52.050;11.036;2023-08-24T06:38:32;5.93;;;5.47;;
5058;SDS011;2548;52.050;11.036;2023-08-24T06:41:06;8.03;;;5.97;;
5058;SDS011;2548;52.050;11.036;2023-08-24T06:43:36;6.10;;;5.50;;
5058;SDS011;2548;52.050;11.036;2023-08-24T06:46:04;5.93;;;5.30;;
5058;SDS011;2548;52.050;11.036;2023-08-24T06:48:35;11.60;;;6.65;;
5058;SDS011;2548;52.050;11.036;2023-08-24T06:51:04;7.17;;;5.30;;
5058;SDS011;2548;52.050;11.036;2023-08-24T06:53:35;15.10;;;5.87;;
5058;SDS011;2548;52.050;11.036;2023-08-24T06:56:03;6.57;;;5.73;;
5058;SDS011;2548;52.050;11.036;2023-08-24T06:58:31;6.30;;;5.70;;
5058;SDS011;2548;52.050;11.036;2023-08-24T07:00:59;10.18;;;5.63;;
5058;SDS011;2548;52.050;11.036;2023-08-24T07:03:26;8.67;;;5.87;;
5058;SDS011;2548;52.050;11.036;2023-08-24T07:05:54;5.77;;;5.20;;
5058;SDS011;2548;52.050;11.036;2023-08-24T07:08:22;9.37;;;6.27;;
5058;SDS011;2548;52.050;11.036;2023-08-24T07:10:51;9.27;;;5.60;;
5058;SDS011;2548;52.050;11.036;2023-08-24T07:13:18;9.77;;;5.73;;
5058;SDS011;2548;52.050;11.036;2023-08-24T07:15:58;7.07;;;6.03;;
5058;SDS011;2548;52.050;11.036;2023-08-24T07:18:26;5.90;;;5.33;;
5058;SDS011;2548;52.050;11.036;2023-08-24T07:20:54;11.40;;;5.83;;
5058;SDS011;2548;52.050;11.036;2023-08-24T07:23:21;9.13;;;6.47;;
5058;SDS011;2548;52.050;11.036;2023-08-24T07:25:57;8.98;;;6.03;;
5058;SDS011;2548;52.050;11.036;2023-08-24T07:28:24;7.03;;;6.27;;
5058;SDS011;2548;52.050;11.036;2023-08-24T07:30:52;10.80;;;5.70;;
5058;SDS011;2548;52.050;11.036;2023-08-24T07:33:21;14.70;;;5.80;;
5058;SDS011;2548;52.050;11.036;2023-08-24T07:35:50;5.80;;;5.27;;
5058;SDS011;2548;52.050;11.036;2023-08-24T07:38:18;9.17;;;5.20;;
5058;SDS011;2548;52.050;11.036;2023-08-24T07:40:46;6.53;;;5.33;;
5058;SDS011;2548;52.050;11.036;2023-08-24T07:43:15;6.03;;;5.63;;
5058;SDS011;2548;52.050;11.036;2023-08-24T07:45:45;7.10;;;5.63;;
5058;SDS011;2548;52.050;11.036;2023-08-24T07:48:13;6.67;;;5.00;;
5058;SDS011;2548;52.050;11.036;2023-08-24T07:50:44;5.30;;;4.90;;
5058;SDS011;2548;52.050;11.036;2023-08-24T07:53:14;6.90;;;4.43;;
5058;SDS011;2548;52.050;11.036;2023-08-24T07:55:54;7.07;;;5.53;;
5058;SDS011;2548;52.050;11.036;2023-08-24T07:58:24;16.80;;;5.80;;
5058;SDS011;2548;52.050;11.036;2023-08-24T08:00:52;5.20;;;4.80;;
5058;SDS011;2548;52.050;11.036;2023-08-24T08:03:23;5.03;;;4.50;;
5058;SDS011;2548;52.050;11.036;2023-08-24T08:05:50;13.63;;;5.00;;
5058;SDS011;2548;52.050;11.036;2023-08-24T08:08:18;8.90;;;5.37;;
5058;SDS011;2548;52.050;11.036;2023-08-24T08:10:55;5.13;;;4.73;;
5058;SDS011;2548;52.050;11.036;2023-08-24T08:13:26;4.90;;;4.50;;
5058;SDS011;2548;52.050;11.036;2023-08-24T08:15:54;8.33;;;4.63;;
5058;SDS011;2548;52.050;11.036;2023-08-24T08:18:32;4.97;;;4.57;;
5058;SDS011;2548;52.050;11.036;2023-08-24T08:21:07;7.57;;;4.67;;
5058;SDS011;2548;52.050;11.036;2023-08-24T08:23:36;8.47;;;4.43;;
5058;SDS011;2548;52.050;11.036;2023-08-24T08:26:03;7.43;;;3.70;;
5058;SDS011;2548;52.050;11.036;2023-08-24T08:28:32;4.10;;;3.70;;
5058;SDS011;2548;52.050;11.036;2023-08-24T08:31:03;4.63;;;4.30;;
5058;SDS011;2548;52.050;11.036;2023-08-24T08:33:31;4.27;;;3.97;;
5058;SDS011;2548;52.050;11.036;2023-08-24T08:35:59;4.80;;;4.50;;
5058;SDS011;2548;52.050;11.036;2023-08-24T08:38:27;10.60;;;3.87;;
5058;SDS011;2548;52.050;11.036;2023-08-24T08:40:55;11.53;;;4.53;;
5058;SDS011;2548;52.050;11.036;2023-08-24T08:43:28;4.90;;;3.97;;
5058;SDS011;2548;52.050;11.036;2023-08-24T08:45:57;3.47;;;3.27;;
5058;SDS011;2548;52.050;11.036;2023-08-24T08:48:29;5.37;;;3.10;;
5058;SDS011;2548;52.050;11.036;2023-08-24T08:50:59;5.53;;;3.57;;
5058;SDS011;2548;52.050;11.036;2023-08-24T08:53:28;3.50;;;3.00;;
5058;SDS011;2548;52.050;11.036;2023-08-24T08:55:56;3.37;;;3.17;;
5058;SDS011;2548;52.050;11.036;2023-08-24T08:58:35;3.90;;;3.50;;
5058;SDS011;2548;52.050;11.036;2023-08-24T09:01:05;12.43;;;3.87;;
5058;SDS011;2548;52.050;11.036;2023-08-24T09:03:34;5.93;;;3.37;;
5058;SDS011;2548;52.050;11.036;2023-08-24T09:06:05;8.73;;;3.60;;
5058;SDS011;2548;52.050;11.036;2023-08-24T09:08:33;3.60;;;3.10;;
5058;SDS011;2548;52.050;11.036;2023-08-24T09:11:01;6.10;;;3.30;;
5058;SDS011;2548;52.050;11.036;2023-08-24T09:13:30;10.00;;;3.40;;
5058;SDS011;2548;52.050;11.036;2023-08-24T09:16:05;4.63;;;3.57;;
5058;SDS011;2548;52.050;11.036;2023-08-24T09:18:35;5.23;;;3.13;;
5058;SDS011;2548;52.050;11.036;2023-08-24T09:21:10;3.37;;;3.07;;
5058;SDS011;2548;52.050;11.036;2023-08-24T09:23:52;3.40;;;3.10;;
5058;SDS011;2548;52.050;11.036;2023-08-24T09:26:27;3.60;;;3.30;;
5058;SDS011;2548;52.050;11.036;2023-08-24T09:28:55;5.00;;;3.40;;
5058;SDS011;2548;52.050;11.036;2023-08-24T09:31:34;4.57;;;3.90;;
5058;SDS011;2548;52.050;11.036;2023-08-24T09:34:06;7.70;;;4.27;;
5058;SDS011;2548;52.050;11.036;2023-08-24T09:36:34;15.43;;;3.60;;
5058;SDS011;2548;52.050;11.036;2023-08-24T09:39:03;3.83;;;3.53;;
5058;SDS011;2548;52.050;11.036;2023-08-24T09:41:38;4.83;;;4.50;;
5058;SDS011;2548;52.050;11.036;2023-08-24T09:44:07;5.33;;;4.73;;
5058;SDS011;2548;52.050;11.036;2023-08-24T09:46:43;5.07;;;4.57;;
5058;SDS011;2548;52.050;11.036;2023-08-24T09:49:11;6.23;;;4.70;;
5058;SDS011;2548;52.050;11.036;2023-08-24T09:51:39;4.50;;;4.13;;
5058;SDS011;2548;52.050;11.036;2023-08-24T09:54:18;6.37;;;4.90;;
5058;SDS011;2548;52.050;11.036;2023-08-24T09:56:53;4.50;;;4.17;;
5058;SDS011;2548;52.050;11.036;2023-08-24T09:59:22;7.53;;;3.87;;
5058;SDS011;2548;52.050;11.036;2023-08-24T10:01:55;3.63;;;3.33;;
5058;SDS011;2548;52.050;11.036;2023-08-24T10:04:23;4.90;;;4.03;;
5058;SDS011;2548;52.050;11.036;2023-08-24T10:06:52;9.27;;;4.03;;
5058;SDS011;2548;52.050;11.036;2023-08-24T10:09:25;6.70;;;3.67;;
5058;SDS011;2548;52.050;11.036;2023-08-24T10:11:58;7.20;;;3.70;;
5058;SDS011;2548;52.050;11.036;2023-08-24T10:14:29;3.63;;;2.80;;
5058;SDS011;2548;52.050;11.036;2023-08-24T10:17:04;3.50;;;2.57;;
5058;SDS011;2548;52.050;11.036;2023-08-24T10:19:32;4.53;;;3.03;;
5058;SDS011;2548;52.050;11.036;2023-08-24T10:22:00;4.40;;;3.30;;
5058;SDS011;2548;52.050;11.036;2023-08-24T10:24:28;7.37;;;2.80;;
5058;SDS011;2548;52.050;11.036;2023-08-24T10:26:57;2.70;;;2.50;;
5058;SDS011;2548;52.050;11.036;2023-08-24T10:29:29;3.40;;;3.20;;
5058;SDS011;2548;52.050;11.036;2023-08-24T10:31:56;3.37;;;2.90;;
5058;SDS011;2548;52.050;11.036;2023-08-24T10:34:25;5.17;;;3.57;;
5058;SDS011;2548;52.050;11.036;2023-08-24T10:36:53;2.63;;;2.43;;
5058;SDS011;2548;52.050;11.036;2023-08-24T10:39:26;2.67;;;2.47;;
5058;SDS011;2548;52.050;11.036;2023-08-24T10:41:54;3.20;;;2.97;;
5058;SDS011;2548;52.050;11.036;2023-08-24T10:44:23;3.77;;;2.27;;
5058;SDS011;2548;52.050;11.036;2023-08-24T10:47:06;8.07;;;3.13;;
5058;SDS011;2548;52.050;11.036;2023-08-24T10:49:36;4.27;;;3.40;;
5058;SDS011;2548;52.050;11.036;2023-08-24T10:52:17;3.80;;;3.50;;
5058;SDS011;2548;52.050;11.036;2023-08-24T10:54:46;4.60;;;3.60;;
5058;SDS011;2548;52.050;11.036;2023-08-24T10:57:17;8.60;;;3.63;;
5058;SDS011;2548;52.050;11.036;2023-08-24T10:59:45;3.97;;;2.93;;
5058;SDS011;2548;52.050;11.036;2023-08-24T11:02:25;4.83;;;2.70;;
5058;SDS011;2548;52.050;11.036;2023-08-24T11:05:06;3.77;;;3.40;;
5058;SDS011;2548;52.050;11.036;2023-08-24T11:07:47;5.00;;;3.10;;
5058;SDS011;2548;52.050;11.036;2023-08-24T11:10:18;3.57;;;3.20;;
5058;SDS011;2548;52.050;11.036;2023-08-24T11:15:40;10.43;;;3.03;;
5058;SDS011;2548;52.050;11.036;2023-08-24T11:18:12;5.87;;;2.90;;
5058;SDS011;2548;52.050;11.036;2023-08-24T11:21:01;3.53;;;2.60;;
5058;SDS011;2548;52.050;11.036;2023-08-24T11:23:29;4.93;;;3.00;;
5058;SDS011;2548;52.050;11.036;2023-08-24T11:25:57;5.20;;;3.10;;
5058;SDS011;2548;52.050;11.036;2023-08-24T11:28:27;3.70;;;3.27;;
5058;SDS011;2548;52.050;11.036;2023-08-24T11:30:55;6.57;;;2.80;;
5058;SDS011;2548;52.050;11.036;2023-08-24T11:33:28;3.80;;;2.77;;
5058;SDS011;2548;52.050;11.036;2023-08-24T11:35:56;3.43;;;3.23;;
5058;SDS011;2548;52.050;11.036;2023-08-24T11:38:26;7.97;;;3.20;;
5058;SDS011;2548;52.050;11.036;2023-08-24T11:41:09;3.67;;;3.10;;
5058;SDS011;2548;52.050;11.036;2023-08-24T11:43:37;5.13;;;3.10;;
5058;SDS011;2548;52.050;11.036;2023-08-24T11:46:05;5.17;;;2.70;;
5058;SDS011;2548;52.050;11.036;2023-08-24T11:48:32;5.10;;;2.93;;
5058;SDS011;2548;52.050;11.036;2023-08-24T11:51:02;3.90;;;2.80;;
5058;SDS011;2548;52.050;11.036;2023-08-24T11:53:31;5.80;;;2.63;;
5058;SDS011;2548;52.050;11.036;2023-08-24T11:55:59;4.03;;;3.67;;
5058;SDS011;2548;52.050;11.036;2023-08-24T11:58:28;6.37;;;3.30;;
5058;SDS011;2548;52.050;11.036;2023-08-24T12:00:55;3.97;;;3.07;;
5058;SDS011;2548;52.050;11.036;2023-08-24T12:03:23;4.87;;;3.50;;
5058;SDS011;2548;52.050;11.036;2023-08-24T12:05:50;15.93;;;3.73;;
5058;SDS011;2548;52.050;11.036;2023-08-24T12:08:18;3.10;;;2.90;;
5058;SDS011;2548;52.050;11.036;2023-08-24T12:10:47;4.03;;;2.80;;
5058;SDS011;2548;52.050;11.036;2023-08-24T12:13:14;4.20;;;3.40;;
5058;SDS011;2548;52.050;11.036;2023-08-24T12:15:42;3.70;;;2.70;;
5058;SDS011;2548;52.050;11.036;2023-08-24T12:18:13;15.27;;;3.60;;
5058;SDS011;2548;52.050;11.036;2023-08-24T12:20:41;3.33;;;3.13;;
5058;SDS011;2548;52.050;11.036;2023-08-24T12:23:10;4.00;;;2.80;;
5058;SDS011;2548;52.050;11.036;2023-08-24T12:25:37;8.40;;;3.33;;
5058;SDS011;2548;52.050;11.036;2023-08-24T12:28:11;3.60;;;2.87;;
5058;SDS011;2548;52.050;11.036;2023-08-24T12:30:45;3.30;;;3.00;;
5058;SDS011;2548;52.050;11.036;2023-08-24T12:33:23;3.57;;;2.67;;
5058;SDS011;2548;52.050;11.036;2023-08-24T12:35:51;3.30;;;2.67;;
5058;SDS011;2548;52.050;11.036;2023-08-24T12:38:19;4.37;;;3.17;;
5058;SDS011;2548;52.050;11.036;2023-08-24T12:40:46;4.73;;;2.53;;
5058;SDS011;2548;52.050;11.036;2023-08-24T12:43:15;3.13;;;2.40;;
5058;SDS011;2548;52.050;11.036;2023-08-24T12:45:43;6.03;;;3.33;;
5058;SDS011;2548;52.050;11.036;2023-08-24T12:48:10;2.50;;;2.40;;
5058;SDS011;2548;52.050;11.036;2023-08-24T12:50:38;3.90;;;2.60;;
5058;SDS011;2548;52.050;11.036;2023-08-24T12:53:05;6.50;;;3.17;;
5058;SDS011;2548;52.050;11.036;2023-08-24T12:55:33;2.80;;;2.60;;
5058;SDS011;2548;52.050;11.036;2023-08-24T12:58:02;2.70;;;2.60;;
5058;SDS011;2548;52.050;11.036;2023-08-24T13:00:31;3.50;;;3.20;;
5058;SDS011;2548;52.050;11.036;2023-08-24T13:02:59;3.10;;;2.80;;
5058;SDS011;2548;52.050;11.036;2023-08-24T13:05:26;4.27;;;2.90;;
5058;SDS011;2548;52.050;11.036;2023-08-24T13:07:54;3.10;;;2.57;;
5058;SDS011;2548;52.050;11.036;2023-08-24T13:10:21;4.30;;;2.87;;
5058;SDS011;2548;52.050;11.036;2023-08-24T13:12:50;2.90;;;2.70;;
5058;SDS011;2548;52.050;11.036;2023-08-24T13:15:18;4.10;;;2.73;;
5058;SDS011;2548;52.050;11.036;2023-08-24T13:17:47;2.43;;;2.30;;
5058;SDS011;2548;52.050;11.036;2023-08-24T13:20:15;4.60;;;3.20;;
5058;SDS011;2548;52.050;11.036;2023-08-24T13:22:43;5.40;;;3.03;;
5058;SDS011;2548;52.050;11.036;2023-08-24T13:25:10;6.20;;;2.60;;
5058;SDS011;2548;52.050;11.036;2023-08-24T13:27:38;6.00;;;2.50;;
5058;SDS011;2548;52.050;11.036;2023-08-24T13:30:05;2.80;;;2.50;;
5058;SDS011;2548;52.050;11.036;2023-08-24T13:32:33;2.80;;;2.47;;
5058;SDS011;2548;52.050;11.036;2023-08-24T13:35:03;3.17;;;2.33;;
5058;SDS011;2548;52.050;11.036;2023-08-24T13:37:31;7.97;;;2.57;;
5058;SDS011;2548;52.050;11.036;2023-08-24T13:39:58;3.30;;;3.00;;
5058;SDS011;2548;52.050;11.036;2023-08-24T13:42:25;3.77;;;2.70;;
5058;SDS011;2548;52.050;11.036;2023-08-24T13:44:53;4.97;;;2.93;;
5058;SDS011;2548;52.050;11.036;2023-08-24T13:47:20;5.07;;;2.60;;
5058;SDS011;2548;52.050;11.036;2023-08-24T13:49:48;5.33;;;3.03;;
5058;SDS011;2548;52.050;11.036;2023-08-24T13:52:17;2.60;;;2.40;;
5058;SDS011;2548;52.050;11.036;2023-08-24T13:54:44;5.97;;;2.60;;
5058;SDS011;2548;52.050;11.036;2023-08-24T13:57:13;6.03;;;2.60;;
5058;SDS011;2548;52.050;11.036;2023-08-24T13:59:41;4.33;;;2.57;;
5058;SDS011;2548;52.050;11.036;2023-08-24T14:02:09;4.10;;;2.67;;
5058;SDS011;2548;52.050;11.036;2023-08-24T14:04:37;4.43;;;2.70;;
5058;SDS011;2548;52.050;11.036;2023-08-24T14:07:05;2.53;;;2.30;;
5058;SDS011;2548;52.050;11.036;2023-08-24T14:09:33;8.43;;;2.57;;
5058;SDS011;2548;52.050;11.036;2023-08-24T14:12:01;2.77;;;2.53;;
5058;SDS011;2548;52.050;11.036;2023-08-24T14:14:28;10.13;;;3.07;;
5058;SDS011;2548;52.050;11.036;2023-08-24T14:16:56;3.30;;;2.50;;
5058;SDS011;2548;52.050;11.036;2023-08-24T14:19:24;6.73;;;2.77;;
5058;SDS011;2548;52.050;11.036;2023-08-24T14:21:52;3.27;;;2.47;;
5058;SDS011;2548;52.050;11.036;2023-08-24T14:24:19;4.70;;;2.37;;
5058;SDS011;2548;52.050;11.036;2023-08-24T14:26:48;2.80;;;2.57;;
5058;SDS011;2548;52.050;11.036;2023-08-24T14:29:15;2.30;;;2.10;;
5058;SDS011;2548;52.050;11.036;2023-08-24T14:31:43;2.37;;;2.27;;
5058;SDS011;2548;52.050;11.036;2023-08-24T14:34:10;2.73;;;2.53;;
5058;SDS011;2548;52.050;11.036;2023-08-24T14:36:38;2.10;;;2.00;;
5058;SDS011;2548;52.050;11.036;2023-08-24T14:39:05;5.03;;;2.60;;
5058;SDS011;2548;52.050;11.036;2023-08-24T14:41:33;4.50;;;2.30;;
5058;SDS011;2548;52.050;11.036;2023-08-24T14:44:01;4.30;;;2.43;;
5058;SDS011;2548;52.050;11.036;2023-08-24T14:46:29;4.40;;;2.40;;
5058;SDS011;2548;52.050;11.036;2023-08-24T14:48:58;2.40;;;2.30;;
5058;SDS011;2548;52.050;11.036;2023-08-24T14:51:25;2.20;;;2.00;;
5058;SDS011;2548;52.050;11.036;2023-08-24T14:53:53;11.87;;;2.20;;
5058;SDS011;2548;52.050;11.036;2023-08-24T14:56:20;2.93;;;2.73;;
5058;SDS011;2548;52.050;11.036;2023-08-24T14:58:48;7.20;;;2.93;;
5058;SDS011;2548;52.050;11.036;2023-08-24T15:01:16;10.53;;;3.13;;
5058;SDS011;2548;52.050;11.036;2023-08-24T15:03:44;8.17;;;2.90;;
5058;SDS011;2548;52.050;11.036;2023-08-24T15:06:12;4.50;;;2.30;;
5058;SDS011;2548;52.050;11.036;2023-08-24T15:08:39;2.30;;;2.20;;
5058;SDS011;2548;52.050;11.036;2023-08-24T15:11:08;3.23;;;2.93;;
5058;SDS011;2548;52.050;11.036;2023-08-24T15:13:37;4.33;;;2.53;;
5058;SDS011;2548;52.050;11.036;2023-08-24T15:16:05;7.80;;;2.73;;